Terminal Aerodrome Forecast
Issued by NWS Salt Lake City, UT

Home | Current Version | Previous Version | Text Only | Print | Product List | Glossary On
Versions: 1 2 3 4 5 6 7 8 9 10 11 12 13 14 15 16 17 18 19 20 21 22 23 24 25 26 27 28 29 30 31
000
FTUS45 KSLC 290001 AAB
TAFSLC
TAF AMD
KSLC 290001Z 2900/3006 02011KT P6SM SCT060 BKN100
      TEMPO 2900/2901 10011KT
     FM290400 15006KT P6SM SCT070 BKN120
     FM291700 31007KT P6SM SCT070 BKN120
     FM300300 15006KT P6SM VCSH SCT040 BKN060=

USA.gov is the U.S. government's official web portal to all federal, state and local government web resources and services.